sensor_id;sensor_type;location;lat;lon;timestamp;P1;durP1;ratioP1;P2;durP2;ratioP2
32894;SDS011;19251;49.484;8.260;2022-07-29T00:02:32;3.95;;;1.12;;
32894;SDS011;19251;49.484;8.260;2022-07-29T00:07:34;3.15;;;0.95;;
32894;SDS011;19251;49.484;8.260;2022-07-29T00:12:37;3.30;;;1.12;;
32894;SDS011;19251;49.484;8.260;2022-07-29T00:17:39;2.42;;;1.20;;
32894;SDS011;19251;49.484;8.260;2022-07-29T00:22:41;2.58;;;1.27;;
32894;SDS011;19251;49.484;8.260;2022-07-29T00:27:44;5.25;;;1.23;;
32894;SDS011;19251;49.484;8.260;2022-07-29T00:32:47;2.45;;;1.20;;
32894;SDS011;19251;49.484;8.260;2022-07-29T00:37:50;2.62;;;1.62;;
32894;SDS011;19251;49.484;8.260;2022-07-29T00:42:52;5.85;;;1.02;;
32894;SDS011;19251;49.484;8.260;2022-07-29T00:47:55;4.32;;;1.27;;
32894;SDS011;19251;49.484;8.260;2022-07-29T00:52:57;1.48;;;1.00;;
32894;SDS011;19251;49.484;8.260;2022-07-29T00:58:00;11.65;;;1.50;;
32894;SDS011;19251;49.484;8.260;2022-07-29T01:03:02;3.22;;;1.55;;
32894;SDS011;19251;49.484;8.260;2022-07-29T01:13:09;5.05;;;1.40;;
32894;SDS011;19251;49.484;8.260;2022-07-29T01:18:16;2.53;;;1.12;;
32894;SDS011;19251;49.484;8.260;2022-07-29T01:23:34;4.90;;;1.30;;
32894;SDS011;19251;49.484;8.260;2022-07-29T01:29:17;4.78;;;1.10;;
32894;SDS011;19251;49.484;8.260;2022-07-29T01:39:41;6.32;;;1.37;;
32894;SDS011;19251;49.484;8.260;2022-07-29T01:44:54;5.65;;;1.45;;
32894;SDS011;19251;49.484;8.260;2022-07-29T01:50:04;6.15;;;1.62;;
32894;SDS011;19251;49.484;8.260;2022-07-29T01:55:13;3.37;;;1.00;;
32894;SDS011;19251;49.484;8.260;2022-07-29T02:00:18;3.37;;;1.45;;
32894;SDS011;19251;49.484;8.260;2022-07-29T02:05:21;11.85;;;1.75;;
32894;SDS011;19251;49.484;8.260;2022-07-29T02:10:29;3.83;;;1.55;;
32894;SDS011;19251;49.484;8.260;2022-07-29T02:15:34;4.00;;;1.33;;
32894;SDS011;19251;49.484;8.260;2022-07-29T02:20:38;4.18;;;1.25;;
32894;SDS011;19251;49.484;8.260;2022-07-29T02:25:41;3.80;;;1.20;;
32894;SDS011;19251;49.484;8.260;2022-07-29T02:30:45;2.20;;;1.42;;
32894;SDS011;19251;49.484;8.260;2022-07-29T02:35:50;3.22;;;1.40;;
32894;SDS011;19251;49.484;8.260;2022-07-29T02:40:53;10.48;;;1.70;;
32894;SDS011;19251;49.484;8.260;2022-07-29T02:45:58;9.95;;;1.87;;
32894;SDS011;19251;49.484;8.260;2022-07-29T02:51:06;4.85;;;1.52;;
32894;SDS011;19251;49.484;8.260;2022-07-29T02:56:33;2.95;;;1.12;;
32894;SDS011;19251;49.484;8.260;2022-07-29T03:01:42;4.15;;;1.27;;
32894;SDS011;19251;49.484;8.260;2022-07-29T03:06:45;3.47;;;1.20;;
32894;SDS011;19251;49.484;8.260;2022-07-29T03:11:49;2.97;;;1.65;;
32894;SDS011;19251;49.484;8.260;2022-07-29T03:16:51;2.75;;;1.15;;
32894;SDS011;19251;49.484;8.260;2022-07-29T03:26:58;9.43;;;1.60;;
32894;SDS011;19251;49.484;8.260;2022-07-29T03:32:02;3.28;;;1.00;;
32894;SDS011;19251;49.484;8.260;2022-07-29T03:37:09;3.37;;;1.25;;
32894;SDS011;19251;49.484;8.260;2022-07-29T03:42:12;4.05;;;1.45;;
32894;SDS011;19251;49.484;8.260;2022-07-29T03:47:17;4.28;;;1.35;;
32894;SDS011;19251;49.484;8.260;2022-07-29T03:52:43;5.43;;;1.20;;
32894;SDS011;19251;49.484;8.260;2022-07-29T03:57:46;2.55;;;1.55;;
32894;SDS011;19251;49.484;8.260;2022-07-29T04:07:52;4.00;;;1.50;;
32894;SDS011;19251;49.484;8.260;2022-07-29T04:12:54;6.32;;;1.60;;
32894;SDS011;19251;49.484;8.260;2022-07-29T04:17:57;1.40;;;0.90;;
32894;SDS011;19251;49.484;8.260;2022-07-29T04:23:00;1.87;;;1.45;;
32894;SDS011;19251;49.484;8.260;2022-07-29T04:28:02;2.87;;;1.58;;
32894;SDS011;19251;49.484;8.260;2022-07-29T04:33:05;4.43;;;1.67;;
32894;SDS011;19251;49.484;8.260;2022-07-29T04:38:08;2.08;;;1.25;;
32894;SDS011;19251;49.484;8.260;2022-07-29T04:43:16;2.45;;;1.25;;
32894;SDS011;19251;49.484;8.260;2022-07-29T04:48:23;2.10;;;1.23;;
32894;SDS011;19251;49.484;8.260;2022-07-29T04:53:29;3.97;;;1.60;;
32894;SDS011;19251;49.484;8.260;2022-07-29T04:58:33;3.15;;;1.20;;
32894;SDS011;19251;49.484;8.260;2022-07-29T05:03:36;5.37;;;1.73;;
32894;SDS011;19251;49.484;8.260;2022-07-29T05:08:38;2.90;;;1.20;;
32894;SDS011;19251;49.484;8.260;2022-07-29T05:13:42;9.43;;;2.00;;
32894;SDS011;19251;49.484;8.260;2022-07-29T05:18:47;7.75;;;1.67;;
32894;SDS011;19251;49.484;8.260;2022-07-29T05:23:50;3.30;;;1.60;;
32894;SDS011;19251;49.484;8.260;2022-07-29T05:28:52;3.65;;;1.48;;
32894;SDS011;19251;49.484;8.260;2022-07-29T05:33:55;4.55;;;1.77;;
32894;SDS011;19251;49.484;8.260;2022-07-29T05:38:59;5.65;;;1.30;;
32894;SDS011;19251;49.484;8.260;2022-07-29T05:44:01;4.55;;;2.33;;
32894;SDS011;19251;49.484;8.260;2022-07-29T05:49:03;2.10;;;1.42;;
32894;SDS011;19251;49.484;8.260;2022-07-29T05:54:08;6.28;;;1.95;;
32894;SDS011;19251;49.484;8.260;2022-07-29T05:59:10;6.37;;;2.17;;
32894;SDS011;19251;49.484;8.260;2022-07-29T06:04:19;9.65;;;2.50;;
32894;SDS011;19251;49.484;8.260;2022-07-29T06:09:22;5.75;;;1.50;;
32894;SDS011;19251;49.484;8.260;2022-07-29T06:19:28;4.62;;;2.12;;
32894;SDS011;19251;49.484;8.260;2022-07-29T06:29:32;8.63;;;2.17;;
32894;SDS011;19251;49.484;8.260;2022-07-29T06:34:35;4.12;;;1.80;;
32894;SDS011;19251;49.484;8.260;2022-07-29T06:39:41;8.73;;;1.92;;
32894;SDS011;19251;49.484;8.260;2022-07-29T06:44:43;4.28;;;1.67;;
32894;SDS011;19251;49.484;8.260;2022-07-29T06:49:46;4.00;;;2.08;;
32894;SDS011;19251;49.484;8.260;2022-07-29T06:54:48;7.72;;;1.80;;
32894;SDS011;19251;49.484;8.260;2022-07-29T06:59:50;8.68;;;2.10;;
32894;SDS011;19251;49.484;8.260;2022-07-29T07:04:52;7.10;;;2.33;;
32894;SDS011;19251;49.484;8.260;2022-07-29T07:09:54;4.55;;;2.17;;
32894;SDS011;19251;49.484;8.260;2022-07-29T07:14:57;5.80;;;2.50;;
32894;SDS011;19251;49.484;8.260;2022-07-29T07:19:59;5.22;;;2.20;;
32894;SDS011;19251;49.484;8.260;2022-07-29T07:25:01;4.10;;;2.22;;
32894;SDS011;19251;49.484;8.260;2022-07-29T07:35:10;4.65;;;1.90;;
32894;SDS011;19251;49.484;8.260;2022-07-29T07:40:12;10.30;;;2.80;;
32894;SDS011;19251;49.484;8.260;2022-07-29T07:45:19;4.10;;;2.42;;
32894;SDS011;19251;49.484;8.260;2022-07-29T07:50:21;3.28;;;2.40;;
32894;SDS011;19251;49.484;8.260;2022-07-29T08:00:27;3.37;;;2.67;;
32894;SDS011;19251;49.484;8.260;2022-07-29T08:05:29;6.32;;;2.53;;
32894;SDS011;19251;49.484;8.260;2022-07-29T08:15:59;5.05;;;2.67;;
32894;SDS011;19251;49.484;8.260;2022-07-29T08:21:03;5.03;;;2.65;;
32894;SDS011;19251;49.484;8.260;2022-07-29T08:26:06;5.55;;;2.78;;
32894;SDS011;19251;49.484;8.260;2022-07-29T08:31:12;6.55;;;2.83;;
32894;SDS011;19251;49.484;8.260;2022-07-29T08:36:15;3.37;;;1.85;;
32894;SDS011;19251;49.484;8.260;2022-07-29T08:51:23;35.10;;;3.23;;
32894;SDS011;19251;49.484;8.260;2022-07-29T08:56:27;4.37;;;2.78;;
32894;SDS011;19251;49.484;8.260;2022-07-29T09:01:33;4.57;;;2.12;;
32894;SDS011;19251;49.484;8.260;2022-07-29T09:06:44;2.42;;;1.50;;
32894;SDS011;19251;49.484;8.260;2022-07-29T09:11:49;4.37;;;2.37;;
32894;SDS011;19251;49.484;8.260;2022-07-29T09:16:56;4.90;;;2.28;;
32894;SDS011;19251;49.484;8.260;2022-07-29T09:21:59;4.15;;;2.42;;
32894;SDS011;19251;49.484;8.260;2022-07-29T09:27:12;3.72;;;2.05;;
32894;SDS011;19251;49.484;8.260;2022-07-29T09:32:20;4.72;;;2.65;;
32894;SDS011;19251;49.484;8.260;2022-07-29T09:37:26;10.15;;;2.78;;
32894;SDS011;19251;49.484;8.260;2022-07-29T09:42:29;7.72;;;2.83;;
32894;SDS011;19251;49.484;8.260;2022-07-29T09:47:44;8.70;;;2.72;;
32894;SDS011;19251;49.484;8.260;2022-07-29T09:52:51;2.58;;;2.28;;
32894;SDS011;19251;49.484;8.260;2022-07-29T09:57:54;7.53;;;2.92;;
32894;SDS011;19251;49.484;8.260;2022-07-29T10:03:17;4.20;;;2.72;;
32894;SDS011;19251;49.484;8.260;2022-07-29T10:08:24;8.23;;;3.30;;
32894;SDS011;19251;49.484;8.260;2022-07-29T10:13:28;7.25;;;3.10;;
32894;SDS011;19251;49.484;8.260;2022-07-29T10:18:30;6.80;;;3.25;;
32894;SDS011;19251;49.484;8.260;2022-07-29T10:23:34;4.75;;;2.78;;
32894;SDS011;19251;49.484;8.260;2022-07-29T10:28:48;4.60;;;2.80;;
32894;SDS011;19251;49.484;8.260;2022-07-29T10:39:00;5.72;;;3.00;;
32894;SDS011;19251;49.484;8.260;2022-07-29T10:44:17;5.28;;;2.80;;
32894;SDS011;19251;49.484;8.260;2022-07-29T10:49:24;8.15;;;3.03;;
32894;SDS011;19251;49.484;8.260;2022-07-29T10:59:36;10.30;;;3.35;;
32894;SDS011;19251;49.484;8.260;2022-07-29T11:15:55;2.80;;;2.30;;
32894;SDS011;19251;49.484;8.260;2022-07-29T11:20:58;7.93;;;3.33;;
32894;SDS011;19251;49.484;8.260;2022-07-29T11:26:14;10.40;;;3.60;;
32894;SDS011;19251;49.484;8.260;2022-07-29T11:31:34;10.48;;;2.72;;
32894;SDS011;19251;49.484;8.260;2022-07-29T11:47:34;8.25;;;3.30;;
32894;SDS011;19251;49.484;8.260;2022-07-29T11:52:40;8.70;;;2.78;;
32894;SDS011;19251;49.484;8.260;2022-07-29T11:57:55;5.53;;;2.80;;
32894;SDS011;19251;49.484;8.260;2022-07-29T12:03:08;13.80;;;3.22;;
32894;SDS011;19251;49.484;8.260;2022-07-29T12:08:14;4.90;;;2.58;;
32894;SDS011;19251;49.484;8.260;2022-07-29T12:13:22;6.78;;;3.08;;
32894;SDS011;19251;49.484;8.260;2022-07-29T12:18:38;5.75;;;2.50;;
32894;SDS011;19251;49.484;8.260;2022-07-29T12:23:41;5.65;;;3.37;;
32894;SDS011;19251;49.484;8.260;2022-07-29T12:29:05;8.57;;;3.00;;
32894;SDS011;19251;49.484;8.260;2022-07-29T12:34:16;4.75;;;3.15;;
32894;SDS011;19251;49.484;8.260;2022-07-29T12:39:18;5.37;;;3.17;;
32894;SDS011;19251;49.484;8.260;2022-07-29T12:44:21;9.95;;;2.60;;
32894;SDS011;19251;49.484;8.260;2022-07-29T12:49:24;10.77;;;2.60;;
32894;SDS011;19251;49.484;8.260;2022-07-29T12:54:26;5.65;;;2.72;;
32894;SDS011;19251;49.484;8.260;2022-07-29T12:59:28;7.05;;;2.37;;
32894;SDS011;19251;49.484;8.260;2022-07-29T13:04:31;7.65;;;3.33;;
32894;SDS011;19251;49.484;8.260;2022-07-29T13:09:41;8.93;;;2.60;;
32894;SDS011;19251;49.484;8.260;2022-07-29T13:14:46;2.58;;;1.87;;
32894;SDS011;19251;49.484;8.260;2022-07-29T13:19:50;7.47;;;2.85;;
32894;SDS011;19251;49.484;8.260;2022-07-29T13:25:09;6.93;;;2.67;;
32894;SDS011;19251;49.484;8.260;2022-07-29T13:30:12;3.83;;;2.10;;
32894;SDS011;19251;49.484;8.260;2022-07-29T13:35:14;2.28;;;2.08;;
32894;SDS011;19251;49.484;8.260;2022-07-29T13:40:17;3.00;;;2.15;;
32894;SDS011;19251;49.484;8.260;2022-07-29T13:45:19;3.20;;;2.17;;
32894;SDS011;19251;49.484;8.260;2022-07-29T13:50:21;8.70;;;2.47;;
32894;SDS011;19251;49.484;8.260;2022-07-29T13:55:24;5.18;;;1.60;;
32894;SDS011;19251;49.484;8.260;2022-07-29T14:00:26;6.45;;;1.52;;
32894;SDS011;19251;49.484;8.260;2022-07-29T14:05:29;3.50;;;1.98;;
32894;SDS011;19251;49.484;8.260;2022-07-29T14:10:32;6.47;;;2.65;;
32894;SDS011;19251;49.484;8.260;2022-07-29T14:15:34;4.82;;;1.90;;
32894;SDS011;19251;49.484;8.260;2022-07-29T14:20:40;2.75;;;1.90;;
32894;SDS011;19251;49.484;8.260;2022-07-29T14:25:42;8.60;;;1.73;;
32894;SDS011;19251;49.484;8.260;2022-07-29T14:30:45;2.67;;;1.33;;
32894;SDS011;19251;49.484;8.260;2022-07-29T14:35:47;6.25;;;1.83;;
32894;SDS011;19251;49.484;8.260;2022-07-29T14:40:49;11.50;;;2.72;;
32894;SDS011;19251;49.484;8.260;2022-07-29T14:45:51;4.35;;;1.80;;
32894;SDS011;19251;49.484;8.260;2022-07-29T14:51:05;2.92;;;1.50;;
32894;SDS011;19251;49.484;8.260;2022-07-29T14:56:10;7.28;;;1.98;;
32894;SDS011;19251;49.484;8.260;2022-07-29T15:01:34;4.60;;;1.40;;
32894;SDS011;19251;49.484;8.260;2022-07-29T15:06:36;2.22;;;1.30;;
32894;SDS011;19251;49.484;8.260;2022-07-29T15:11:39;3.58;;;1.20;;
32894;SDS011;19251;49.484;8.260;2022-07-29T15:16:41;11.82;;;2.37;;
32894;SDS011;19251;49.484;8.260;2022-07-29T15:21:48;5.03;;;1.58;;
32894;SDS011;19251;49.484;8.260;2022-07-29T15:26:50;10.77;;;2.10;;
32894;SDS011;19251;49.484;8.260;2022-07-29T15:31:53;5.43;;;1.73;;
32894;SDS011;19251;49.484;8.260;2022-07-29T15:36:56;5.15;;;2.00;;
32894;SDS011;19251;49.484;8.260;2022-07-29T15:41:58;2.95;;;1.42;;
32894;SDS011;19251;49.484;8.260;2022-07-29T15:47:02;7.53;;;1.48;;
32894;SDS011;19251;49.484;8.260;2022-07-29T15:52:05;2.40;;;1.62;;
32894;SDS011;19251;49.484;8.260;2022-07-29T15:57:10;2.35;;;1.40;;
32894;SDS011;19251;49.484;8.260;2022-07-29T16:02:12;6.68;;;1.85;;
32894;SDS011;19251;49.484;8.260;2022-07-29T16:07:14;7.37;;;2.20;;
32894;SDS011;19251;49.484;8.260;2022-07-29T16:12:17;6.40;;;1.75;;
32894;SDS011;19251;49.484;8.260;2022-07-29T16:17:19;11.98;;;1.92;;
32894;SDS011;19251;49.484;8.260;2022-07-29T16:22:22;4.32;;;1.37;;
32894;SDS011;19251;49.484;8.260;2022-07-29T16:27:24;1.35;;;1.20;;
32894;SDS011;19251;49.484;8.260;2022-07-29T16:32:38;4.22;;;1.20;;
32894;SDS011;19251;49.484;8.260;2022-07-29T16:37:40;2.80;;;1.25;;
32894;SDS011;19251;49.484;8.260;2022-07-29T16:42:43;2.53;;;1.37;;
32894;SDS011;19251;49.484;8.260;2022-07-29T16:47:48;3.33;;;1.55;;
32894;SDS011;19251;49.484;8.260;2022-07-29T16:52:50;3.65;;;1.65;;
32894;SDS011;19251;49.484;8.260;2022-07-29T16:57:52;2.00;;;1.35;;
32894;SDS011;19251;49.484;8.260;2022-07-29T17:02:55;2.37;;;1.35;;
32894;SDS011;19251;49.484;8.260;2022-07-29T17:07:57;2.47;;;1.30;;
32894;SDS011;19251;49.484;8.260;2022-07-29T17:13:00;3.30;;;1.27;;
32894;SDS011;19251;49.484;8.260;2022-07-29T17:18:02;5.22;;;1.90;;
32894;SDS011;19251;49.484;8.260;2022-07-29T17:28:15;5.80;;;1.35;;
32894;SDS011;19251;49.484;8.260;2022-07-29T17:33:18;12.18;;;2.00;;
32894;SDS011;19251;49.484;8.260;2022-07-29T17:38:20;6.62;;;2.10;;
32894;SDS011;19251;49.484;8.260;2022-07-29T17:43:22;12.00;;;2.15;;
32894;SDS011;19251;49.484;8.260;2022-07-29T17:48:25;3.75;;;1.65;;
32894;SDS011;19251;49.484;8.260;2022-07-29T17:53:28;3.10;;;1.42;;
32894;SDS011;19251;49.484;8.260;2022-07-29T17:58:30;3.60;;;1.10;;
32894;SDS011;19251;49.484;8.260;2022-07-29T18:03:34;10.77;;;2.35;;
32894;SDS011;19251;49.484;8.260;2022-07-29T18:08:39;3.05;;;1.65;;
32894;SDS011;19251;49.484;8.260;2022-07-29T18:13:41;6.18;;;2.17;;
32894;SDS011;19251;49.484;8.260;2022-07-29T18:18:44;4.05;;;2.22;;
32894;SDS011;19251;49.484;8.260;2022-07-29T18:23:46;9.40;;;2.67;;
32894;SDS011;19251;49.484;8.260;2022-07-29T18:28:51;9.43;;;2.00;;
32894;SDS011;19251;49.484;8.260;2022-07-29T18:33:53;4.30;;;2.67;;
32894;SDS011;19251;49.484;8.260;2022-07-29T18:39:00;2.95;;;1.75;;
32894;SDS011;19251;49.484;8.260;2022-07-29T18:44:02;4.43;;;1.77;;
32894;SDS011;19251;49.484;8.260;2022-07-29T18:49:06;12.40;;;2.95;;
32894;SDS011;19251;49.484;8.260;2022-07-29T18:54:08;4.87;;;2.92;;
32894;SDS011;19251;49.484;8.260;2022-07-29T18:59:11;4.85;;;2.62;;
32894;SDS011;19251;49.484;8.260;2022-07-29T19:04:17;10.30;;;2.42;;
32894;SDS011;19251;49.484;8.260;2022-07-29T19:09:19;8.40;;;3.00;;
32894;SDS011;19251;49.484;8.260;2022-07-29T19:14:22;6.50;;;2.95;;
32894;SDS011;19251;49.484;8.260;2022-07-29T19:19:24;7.03;;;2.85;;
32894;SDS011;19251;49.484;8.260;2022-07-29T19:24:26;5.45;;;2.45;;
32894;SDS011;19251;49.484;8.260;2022-07-29T19:29:29;3.33;;;2.67;;
32894;SDS011;19251;49.484;8.260;2022-07-29T19:34:33;5.12;;;2.92;;
32894;SDS011;19251;49.484;8.260;2022-07-29T19:44:37;4.47;;;2.30;;
32894;SDS011;19251;49.484;8.260;2022-07-29T19:49:39;3.10;;;2.75;;
32894;SDS011;19251;49.484;8.260;2022-07-29T19:54:41;6.62;;;2.47;;
32894;SDS011;19251;49.484;8.260;2022-07-29T19:59:44;7.78;;;3.12;;
32894;SDS011;19251;49.484;8.260;2022-07-29T20:04:46;7.57;;;2.33;;
32894;SDS011;19251;49.484;8.260;2022-07-29T20:14:53;8.20;;;2.40;;
32894;SDS011;19251;49.484;8.260;2022-07-29T20:25:00;15.32;;;1.92;;
32894;SDS011;19251;49.484;8.260;2022-07-29T20:35:07;10.57;;;1.85;;
32894;SDS011;19251;49.484;8.260;2022-07-29T20:40:12;14.23;;;3.00;;
32894;SDS011;19251;49.484;8.260;2022-07-29T20:45:15;12.05;;;2.00;;
32894;SDS011;19251;49.484;8.260;2022-07-29T20:50:18;4.70;;;2.60;;
32894;SDS011;19251;49.484;8.260;2022-07-29T20:55:25;2.50;;;2.22;;
32894;SDS011;19251;49.484;8.260;2022-07-29T21:00:28;5.62;;;3.17;;
32894;SDS011;19251;49.484;8.260;2022-07-29T21:05:31;5.72;;;2.95;;
32894;SDS011;19251;49.484;8.260;2022-07-29T21:10:33;4.10;;;2.72;;
32894;SDS011;19251;49.484;8.260;2022-07-29T21:15:36;5.82;;;3.30;;
32894;SDS011;19251;49.484;8.260;2022-07-29T21:25:41;4.85;;;2.65;;
32894;SDS011;19251;49.484;8.260;2022-07-29T21:30:44;3.67;;;3.03;;
32894;SDS011;19251;49.484;8.260;2022-07-29T21:35:47;4.60;;;2.85;;
32894;SDS011;19251;49.484;8.260;2022-07-29T21:41:09;4.25;;;2.90;;
32894;SDS011;19251;49.484;8.260;2022-07-29T21:46:13;5.12;;;2.75;;
32894;SDS011;19251;49.484;8.260;2022-07-29T21:51:17;4.60;;;2.85;;
32894;SDS011;19251;49.484;8.260;2022-07-29T21:56:19;7.10;;;3.47;;
32894;SDS011;19251;49.484;8.260;2022-07-29T22:01:25;7.57;;;3.22;;
32894;SDS011;19251;49.484;8.260;2022-07-29T22:06:27;9.70;;;3.75;;
32894;SDS011;19251;49.484;8.260;2022-07-29T22:11:30;7.00;;;3.55;;
32894;SDS011;19251;49.484;8.260;2022-07-29T22:21:34;7.03;;;3.15;;
32894;SDS011;19251;49.484;8.260;2022-07-29T22:26:37;15.57;;;4.15;;
32894;SDS011;19251;49.484;8.260;2022-07-29T22:31:39;6.28;;;3.40;;
32894;SDS011;19251;49.484;8.260;2022-07-29T22:36:41;6.20;;;3.92;;
32894;SDS011;19251;49.484;8.260;2022-07-29T22:41:43;5.80;;;3.60;;
32894;SDS011;19251;49.484;8.260;2022-07-29T22:46:46;8.27;;;3.47;;
32894;SDS011;19251;49.484;8.260;2022-07-29T22:51:48;5.20;;;3.53;;
32894;SDS011;19251;49.484;8.260;2022-07-29T22:56:50;9.00;;;3.30;;
32894;SDS011;19251;49.484;8.260;2022-07-29T23:01:53;6.18;;;3.60;;
32894;SDS011;19251;49.484;8.260;2022-07-29T23:06:56;4.37;;;3.20;;
32894;SDS011;19251;49.484;8.260;2022-07-29T23:17:01;5.12;;;3.83;;
32894;SDS011;19251;49.484;8.260;2022-07-29T23:22:04;8.52;;;3.08;;
32894;SDS011;19251;49.484;8.260;2022-07-29T23:27:06;9.85;;;3.67;;
32894;SDS011;19251;49.484;8.260;2022-07-29T23:32:08;9.70;;;4.30;;
32894;SDS011;19251;49.484;8.260;2022-07-29T23:37:10;11.75;;;4.18;;
32894;SDS011;19251;49.484;8.260;2022-07-29T23:42:12;5.50;;;3.10;;
32894;SDS011;19251;49.484;8.260;2022-07-29T23:47:15;5.65;;;3.30;;
32894;SDS011;19251;49.484;8.260;2022-07-29T23:52:17;9.00;;;3.65;;
32894;SDS011;19251;49.484;8.260;2022-07-29T23:57:19;3.85;;;3.08;;
